Texas General Land Office
 Texas General Land Office
 George P. Bush, Commissioner

 Oil Spill Prevention
 & Response

Texas Automated Buoy System
Real Time Ocean Observations
Supporting Oil Spill Prevention and
Response since 1995
Geochemical and Environmental Research Group

TABS Buoy D -- Texas Automated Buoy System

TABS Buoy D Conditions at 07/08/2019 03:30 UTC (07/07/2019 22:30 CDT)
27° 56.3760'N   96° 50.5740'W
AA3900 DCS - sensor depth 2m
Water Depth: 60 feet (18 meters)
Speed: 24.16 cm/s (0.47 kts) Direction: 51 °T (NE) Water Temp: 29°C (85 °F)
System Voltage: 12.4 V Signal Strength: -11.5 dB Ping Count: 139
  


IMPORTANT: Notice to Mariners


Today's Velocity Data (download)

   Date   |  Time  |   East |   North|   Speed|  Dir | WaterT |
          |  (UTC) |  (cm/s)|  (cm/s)|  (cm/s)| (°T) |  (°C)  |
==========+========+========+========+========+======+========+
07/07/2019 04:00:00     8.03     0.61     8.05   85.7   28.7
07/07/2019 04:30:00     8.60     1.04     8.66   83.1   28.7
07/07/2019 05:00:00     9.57     1.34     9.66   82.0   28.7
07/07/2019 05:30:00    10.83     0.51    10.84   87.3   28.7
07/07/2019 06:00:00     7.45     4.21     8.56   60.5   28.7
07/07/2019 06:30:00     8.53     3.44     9.20   68.0   28.7
07/07/2019 07:00:00     7.66    -0.21     7.66   91.6   28.7
07/07/2019 07:30:00     9.27     3.20     9.81   71.0   28.7
07/07/2019 08:00:00     5.55     2.55     6.11   65.3   28.7
07/07/2019 08:30:00     7.52     3.09     8.13   67.7   28.6
07/07/2019 09:00:00     7.01     1.57     7.18   77.4   28.6
07/07/2019 09:30:00     5.96     4.23     7.31   54.6   28.6
07/07/2019 10:00:00     5.02     3.41     6.07   55.8   28.7
07/07/2019 10:30:00     7.05     3.36     7.81   64.5   28.6
07/07/2019 11:00:00     6.12     5.07     7.95   50.4   28.6
07/07/2019 11:30:00     8.61     5.37    10.15   58.0   28.6
07/07/2019 12:00:00     7.11     3.64     7.99   62.9   28.6
07/07/2019 12:30:00     8.67     0.72     8.70   85.3   28.6
07/07/2019 13:00:00     9.10    -0.23     9.10   91.4   28.6
07/07/2019 13:30:00     7.10    -0.24     7.10   91.9   28.6
07/07/2019 14:00:00     6.90     0.20     6.90   88.3   28.6
07/07/2019 14:30:00     6.54     0.03     6.54   89.7   28.7
07/07/2019 15:00:00     5.88    -3.10     6.65  117.8   28.7
07/07/2019 15:30:00     5.77    -3.61     6.81  122.0   28.8
07/07/2019 16:00:00     5.52    -3.49     6.53  122.3   28.8
07/07/2019 16:30:00     3.03    -4.14     5.13  143.8   28.9
07/07/2019 17:00:00     5.43    -4.71     7.19  130.9   28.9
07/07/2019 17:30:00     5.59    -4.55     7.21  129.1   29.0
07/07/2019 18:00:00     3.55    -0.85     3.65  103.5   29.1
07/07/2019 18:30:00     5.65    -1.40     5.82  103.9   29.3
07/07/2019 19:00:00     6.36     1.81     6.61   74.1   29.4
07/07/2019 19:30:00     5.21    -1.46     5.41  105.7   29.4
07/07/2019 20:00:00     5.75     2.05     6.10   70.4   29.5
07/07/2019 20:30:00     4.73     2.49     5.35   62.2   29.6
07/07/2019 21:00:00     5.50     4.99     7.43   47.8   29.6
07/07/2019 21:30:00     5.23     8.64    10.10   31.2   29.6
07/07/2019 22:00:00     3.57    10.66    11.24   18.5   29.6
07/07/2019 22:30:00     5.30    13.57    14.57   21.3   29.5
07/07/2019 23:00:00     2.86    10.43    10.82   15.3   29.5
07/07/2019 23:30:00     5.23     9.14    10.53   29.8   29.4
07/08/2019 00:00:00     4.68     6.84     8.29   34.4   29.2
07/08/2019 00:30:00     5.15     9.18    10.53   29.3   29.3
07/08/2019 01:00:00     8.32    11.15    13.91   36.7   29.3
07/08/2019 01:30:00    15.69    10.34    18.79   56.6   28.9
07/08/2019 02:00:00    17.64    10.43    20.49   59.4   29.1
07/08/2019 02:30:00    21.44    14.68    25.98   55.6   29.4
07/08/2019 03:00:00    17.82    16.45    24.25   47.3   29.5
07/08/2019 03:30:00    18.79    15.19    24.16   51.0   29.4



       
 

Today's Temperature - Salinity Data     (Download)


   Date   |  Time  |   Temp |   Cond |Salinity| Density|SoundVel|
          |  (UTC) |   (°C) | (ms/cm)|        | kg/m^3 |  (m/s) |
==========+========+========+========+========+========+========+
07/07/2019 04:30:00    29.42     5.34    32.08     0.00     0.00
07/07/2019 05:00:00    29.43     5.35    32.10     0.00     0.00
07/07/2019 05:30:00    29.42     5.35    32.11     0.00     0.00
07/07/2019 06:00:00    29.42     5.35    32.10     0.00     0.00
07/07/2019 06:30:00    29.39     5.34    32.10     0.00     0.00
07/07/2019 07:00:00    29.44     5.35    32.13     0.00     0.00
07/07/2019 07:30:00    29.44     5.35    32.14     0.00     0.00
07/07/2019 08:00:00    29.40     5.35    32.14     0.00     0.00
07/07/2019 08:30:00    29.34     5.34    32.14     0.00     0.00
07/07/2019 09:00:00    29.34     5.34    32.14     0.00     0.00
07/07/2019 09:30:00    29.37     5.35    32.15     0.00     0.00
07/07/2019 10:00:00    29.36     5.35    32.16     0.00     0.00
07/07/2019 10:30:00    29.34     5.35    32.16     0.00     0.00
07/07/2019 11:00:00    29.34     5.35    32.16     0.00     0.00
07/07/2019 11:30:00    29.32     5.35    32.16     0.00     0.00
07/07/2019 12:00:00    29.32     5.35    32.16     0.00     0.00
07/07/2019 12:30:00    29.31     5.35    32.16     0.00     0.00
07/07/2019 13:00:00    29.31     5.34    32.16     0.00     0.00
07/07/2019 13:30:00    29.31     5.34    32.16     0.00     0.00
07/07/2019 14:00:00    29.33     5.35    32.15     0.00     0.00
07/07/2019 14:30:00    29.37     5.35    32.15     0.00     0.00
07/07/2019 15:00:00    29.41     5.35    32.16     0.00     0.00
07/07/2019 15:30:00    29.44     5.36    32.16     0.00     0.00
07/07/2019 16:00:00    29.52     5.37    32.16     0.00     0.00
07/07/2019 16:30:00    29.56     5.37    32.18     0.00     0.00
07/07/2019 17:00:00    29.59     5.37    32.17     0.00     0.00
07/07/2019 17:30:00    29.73     5.39    32.16     0.00     0.00
07/07/2019 18:00:00    29.86     5.40    32.18     0.00     0.00
07/07/2019 18:30:00    30.04     5.42    32.17     0.00     0.00
07/07/2019 19:00:00    30.11     5.43    32.18     0.00     0.00
07/07/2019 19:30:00    30.07     5.42    32.19     0.00     0.00
07/07/2019 20:00:00    30.24     5.44    32.18     0.00     0.00
07/07/2019 20:30:00    30.27     5.44    32.18     0.00     0.00
07/07/2019 21:00:00    30.27     5.44    32.18     0.00     0.00
07/07/2019 21:30:00    30.32     5.45    32.17     0.00     0.00
07/07/2019 22:00:00    30.25     5.44    32.18     0.00     0.00
07/07/2019 22:30:00    30.21     5.44    32.18     0.00     0.00
07/07/2019 23:00:00    30.13     5.43    32.20     0.00     0.00
07/07/2019 23:30:00    30.03     5.42    32.19     0.00     0.00
07/08/2019 00:00:00    29.82     5.40    32.19     0.00     0.00
07/08/2019 00:30:00    30.09     5.45    32.34     0.00     0.00
07/08/2019 01:00:00    29.96     5.44    32.40     0.00     0.00
07/08/2019 01:30:00    29.56     5.40    32.34     0.00     0.00
07/08/2019 02:00:00    29.80     5.41    32.29     0.00     0.00
07/08/2019 02:30:00    30.21     5.46    32.36     0.00     0.00
07/08/2019 03:00:00    30.20     5.46    32.33     0.00     0.00
07/08/2019 03:30:00    30.12     5.45    32.31     0.00     0.00
07/08/2019 04:00:00    30.06     5.44    32.31     0.00     0.00